sensor_id;sensor_type;location;lat;lon;timestamp;P1;durP1;ratioP1;P2;durP2;ratioP2
51556;SDS011;38766;53.194;5.532;2022-09-01T00:00:59;3.28;;;1.70;;
51556;SDS011;38766;53.194;5.532;2022-09-01T00:03:27;5.20;;;1.70;;
51556;SDS011;38766;53.194;5.532;2022-09-01T00:05:53;4.18;;;1.98;;
51556;SDS011;38766;53.194;5.532;2022-09-01T00:08:21;6.18;;;2.28;;
51556;SDS011;38766;53.194;5.532;2022-09-01T00:10:48;5.80;;;1.88;;
51556;SDS011;38766;53.194;5.532;2022-09-01T00:13:14;4.65;;;1.65;;
51556;SDS011;38766;53.194;5.532;2022-09-01T00:15:40;2.50;;;1.73;;
51556;SDS011;38766;53.194;5.532;2022-09-01T00:18:07;4.43;;;2.13;;
51556;SDS011;38766;53.194;5.532;2022-09-01T00:20:32;6.10;;;2.00;;
51556;SDS011;38766;53.194;5.532;2022-09-01T00:22:58;6.63;;;2.40;;
51556;SDS011;38766;53.194;5.532;2022-09-01T00:25:25;2.63;;;1.70;;
51556;SDS011;38766;53.194;5.532;2022-09-01T00:27:52;3.83;;;2.13;;
51556;SDS011;38766;53.194;5.532;2022-09-01T00:30:18;5.50;;;2.22;;
51556;SDS011;38766;53.194;5.532;2022-09-01T00:32:44;2.35;;;1.90;;
51556;SDS011;38766;53.194;5.532;2022-09-01T00:35:15;2.83;;;1.65;;
51556;SDS011;38766;53.194;5.532;2022-09-01T00:37:42;3.53;;;2.03;;
51556;SDS011;38766;53.194;5.532;2022-09-01T00:40:08;3.00;;;2.13;;
51556;SDS011;38766;53.194;5.532;2022-09-01T00:42:37;5.13;;;2.25;;
51556;SDS011;38766;53.194;5.532;2022-09-01T00:45:04;2.97;;;1.95;;
51556;SDS011;38766;53.194;5.532;2022-09-01T00:47:32;5.43;;;1.80;;
51556;SDS011;38766;53.194;5.532;2022-09-01T00:49:59;3.00;;;2.20;;
51556;SDS011;38766;53.194;5.532;2022-09-01T00:52:38;5.93;;;2.78;;
51556;SDS011;38766;53.194;5.532;2022-09-01T00:55:25;4.93;;;2.05;;
51556;SDS011;38766;53.194;5.532;2022-09-01T00:57:57;5.20;;;2.03;;
51556;SDS011;38766;53.194;5.532;2022-09-01T01:00:25;2.60;;;1.80;;
51556;SDS011;38766;53.194;5.532;2022-09-01T01:02:53;6.97;;;2.17;;
51556;SDS011;38766;53.194;5.532;2022-09-01T01:05:22;3.90;;;2.45;;
51556;SDS011;38766;53.194;5.532;2022-09-01T01:07:57;2.83;;;1.85;;
51556;SDS011;38766;53.194;5.532;2022-09-01T01:10:25;5.53;;;3.00;;
51556;SDS011;38766;53.194;5.532;2022-09-01T01:12:56;2.85;;;2.10;;
51556;SDS011;38766;53.194;5.532;2022-09-01T01:15:26;3.88;;;2.15;;
51556;SDS011;38766;53.194;5.532;2022-09-01T01:17:52;2.30;;;1.70;;
51556;SDS011;38766;53.194;5.532;2022-09-01T01:20:18;3.25;;;2.05;;
51556;SDS011;38766;53.194;5.532;2022-09-01T01:25:47;1.77;;;1.63;;
51556;SDS011;38766;53.194;5.532;2022-09-01T01:28:18;3.38;;;1.90;;
51556;SDS011;38766;53.194;5.532;2022-09-01T01:31:03;8.48;;;2.10;;
51556;SDS011;38766;53.194;5.532;2022-09-01T01:33:41;4.47;;;2.00;;
51556;SDS011;38766;53.194;5.532;2022-09-01T01:36:10;3.63;;;1.98;;
51556;SDS011;38766;53.194;5.532;2022-09-01T01:38:39;4.05;;;2.38;;
51556;SDS011;38766;53.194;5.532;2022-09-01T01:41:10;3.67;;;2.10;;
51556;SDS011;38766;53.194;5.532;2022-09-01T01:43:36;2.40;;;2.05;;
51556;SDS011;38766;53.194;5.532;2022-09-01T01:46:03;2.75;;;1.90;;
51556;SDS011;38766;53.194;5.532;2022-09-01T01:48:38;2.13;;;2.00;;
51556;SDS011;38766;53.194;5.532;2022-09-01T01:51:05;2.47;;;2.10;;
51556;SDS011;38766;53.194;5.532;2022-09-01T01:53:32;1.80;;;1.70;;
51556;SDS011;38766;53.194;5.532;2022-09-01T01:55:58;2.40;;;2.20;;
51556;SDS011;38766;53.194;5.532;2022-09-01T01:58:25;2.20;;;2.00;;
51556;SDS011;38766;53.194;5.532;2022-09-01T02:00:53;3.40;;;1.88;;
51556;SDS011;38766;53.194;5.532;2022-09-01T02:03:22;3.05;;;2.53;;
51556;SDS011;38766;53.194;5.532;2022-09-01T02:05:51;2.17;;;1.80;;
51556;SDS011;38766;53.194;5.532;2022-09-01T02:08:18;2.00;;;1.80;;
51556;SDS011;38766;53.194;5.532;2022-09-01T02:10:47;1.90;;;1.70;;
51556;SDS011;38766;53.194;5.532;2022-09-01T02:13:17;2.33;;;1.95;;
51556;SDS011;38766;53.194;5.532;2022-09-01T02:15:48;1.92;;;1.83;;
51556;SDS011;38766;53.194;5.532;2022-09-01T02:18:25;1.88;;;1.77;;
51556;SDS011;38766;53.194;5.532;2022-09-01T02:20:55;2.50;;;1.90;;
51556;SDS011;38766;53.194;5.532;2022-09-01T02:23:23;3.90;;;1.92;;
51556;SDS011;38766;53.194;5.532;2022-09-01T02:25:50;3.63;;;2.08;;
51556;SDS011;38766;53.194;5.532;2022-09-01T02:28:18;2.45;;;2.00;;
51556;SDS011;38766;53.194;5.532;2022-09-01T02:30:47;2.67;;;1.88;;
51556;SDS011;38766;53.194;5.532;2022-09-01T02:33:24;4.47;;;2.20;;
51556;SDS011;38766;53.194;5.532;2022-09-01T02:35:56;2.13;;;1.77;;
51556;SDS011;38766;53.194;5.532;2022-09-01T02:38:24;2.83;;;2.20;;
51556;SDS011;38766;53.194;5.532;2022-09-01T02:40:53;3.53;;;2.17;;
51556;SDS011;38766;53.194;5.532;2022-09-01T02:43:20;3.10;;;2.22;;
51556;SDS011;38766;53.194;5.532;2022-09-01T02:45:47;2.20;;;2.00;;
51556;SDS011;38766;53.194;5.532;2022-09-01T02:48:27;2.58;;;1.88;;
51556;SDS011;38766;53.194;5.532;2022-09-01T02:51:00;2.63;;;1.92;;
51556;SDS011;38766;53.194;5.532;2022-09-01T02:53:30;4.35;;;2.20;;
51556;SDS011;38766;53.194;5.532;2022-09-01T02:55:58;2.08;;;1.88;;
51556;SDS011;38766;53.194;5.532;2022-09-01T02:58:26;3.78;;;1.90;;
51556;SDS011;38766;53.194;5.532;2022-09-01T03:00:54;4.50;;;1.95;;
51556;SDS011;38766;53.194;5.532;2022-09-01T03:03:21;2.00;;;1.80;;
51556;SDS011;38766;53.194;5.532;2022-09-01T03:05:49;2.30;;;1.95;;
51556;SDS011;38766;53.194;5.532;2022-09-01T03:08:20;2.28;;;1.90;;
51556;SDS011;38766;53.194;5.532;2022-09-01T03:10:48;3.38;;;2.00;;
51556;SDS011;38766;53.194;5.532;2022-09-01T03:13:15;2.85;;;2.05;;
51556;SDS011;38766;53.194;5.532;2022-09-01T03:15:44;2.63;;;2.35;;
51556;SDS011;38766;53.194;5.532;2022-09-01T03:18:11;1.70;;;1.60;;
51556;SDS011;38766;53.194;5.532;2022-09-01T03:20:39;2.00;;;1.90;;
51556;SDS011;38766;53.194;5.532;2022-09-01T03:23:08;2.65;;;2.03;;
51556;SDS011;38766;53.194;5.532;2022-09-01T03:25:39;2.28;;;2.05;;
51556;SDS011;38766;53.194;5.532;2022-09-01T03:28:05;2.53;;;1.90;;
51556;SDS011;38766;53.194;5.532;2022-09-01T03:30:33;2.53;;;2.10;;
51556;SDS011;38766;53.194;5.532;2022-09-01T03:33:00;3.40;;;1.80;;
51556;SDS011;38766;53.194;5.532;2022-09-01T03:35:27;6.82;;;2.25;;
51556;SDS011;38766;53.194;5.532;2022-09-01T03:37:56;3.55;;;2.00;;
51556;SDS011;38766;53.194;5.532;2022-09-01T03:40:24;2.50;;;2.10;;
51556;SDS011;38766;53.194;5.532;2022-09-01T03:42:56;2.22;;;1.65;;
51556;SDS011;38766;53.194;5.532;2022-09-01T03:45:23;1.80;;;1.70;;
51556;SDS011;38766;53.194;5.532;2022-09-01T03:47:49;2.40;;;2.20;;
51556;SDS011;38766;53.194;5.532;2022-09-01T03:50:18;2.95;;;1.98;;
51556;SDS011;38766;53.194;5.532;2022-09-01T03:52:46;2.60;;;1.85;;
51556;SDS011;38766;53.194;5.532;2022-09-01T03:55:22;2.10;;;2.00;;
51556;SDS011;38766;53.194;5.532;2022-09-01T03:57:55;2.40;;;2.00;;
51556;SDS011;38766;53.194;5.532;2022-09-01T04:00:24;2.22;;;2.03;;
51556;SDS011;38766;53.194;5.532;2022-09-01T04:02:54;3.75;;;2.00;;
51556;SDS011;38766;53.194;5.532;2022-09-01T04:05:25;2.47;;;2.08;;
51556;SDS011;38766;53.194;5.532;2022-09-01T04:07:53;2.30;;;2.10;;
51556;SDS011;38766;53.194;5.532;2022-09-01T04:10:21;2.85;;;2.20;;
51556;SDS011;38766;53.194;5.532;2022-09-01T04:12:47;2.10;;;1.88;;
51556;SDS011;38766;53.194;5.532;2022-09-01T04:15:14;2.80;;;1.92;;
51556;SDS011;38766;53.194;5.532;2022-09-01T04:17:45;4.15;;;1.92;;
51556;SDS011;38766;53.194;5.532;2022-09-01T04:20:34;3.40;;;1.63;;
51556;SDS011;38766;53.194;5.532;2022-09-01T04:23:12;1.83;;;1.73;;
51556;SDS011;38766;53.194;5.532;2022-09-01T04:25:46;4.90;;;1.92;;
51556;SDS011;38766;53.194;5.532;2022-09-01T04:28:14;2.25;;;1.90;;
51556;SDS011;38766;53.194;5.532;2022-09-01T04:30:50;1.95;;;1.60;;
51556;SDS011;38766;53.194;5.532;2022-09-01T04:33:20;3.33;;;1.90;;
51556;SDS011;38766;53.194;5.532;2022-09-01T04:35:47;4.18;;;2.35;;
51556;SDS011;38766;53.194;5.532;2022-09-01T04:38:15;2.85;;;1.90;;
51556;SDS011;38766;53.194;5.532;2022-09-01T04:40:41;3.15;;;1.98;;
51556;SDS011;38766;53.194;5.532;2022-09-01T04:43:07;4.03;;;1.50;;
51556;SDS011;38766;53.194;5.532;2022-09-01T04:45:34;2.30;;;1.80;;
51556;SDS011;38766;53.194;5.532;2022-09-01T04:48:03;2.45;;;2.20;;
51556;SDS011;38766;53.194;5.532;2022-09-01T04:50:30;3.00;;;1.95;;
51556;SDS011;38766;53.194;5.532;2022-09-01T04:53:01;2.97;;;2.30;;
51556;SDS011;38766;53.194;5.532;2022-09-01T04:55:29;2.42;;;1.83;;
51556;SDS011;38766;53.194;5.532;2022-09-01T04:57:55;2.90;;;1.90;;
51556;SDS011;38766;53.194;5.532;2022-09-01T05:00:23;2.78;;;2.20;;
51556;SDS011;38766;53.194;5.532;2022-09-01T05:02:55;4.00;;;2.05;;
51556;SDS011;38766;53.194;5.532;2022-09-01T05:05:28;3.35;;;1.95;;
51556;SDS011;38766;53.194;5.532;2022-09-01T05:08:03;4.78;;;2.00;;
51556;SDS011;38766;53.194;5.532;2022-09-01T05:10:41;2.25;;;2.05;;
51556;SDS011;38766;53.194;5.532;2022-09-01T05:13:12;4.38;;;2.00;;
51556;SDS011;38766;53.194;5.532;2022-09-01T05:15:41;2.17;;;1.75;;
51556;SDS011;38766;53.194;5.532;2022-09-01T05:20:40;2.78;;;2.13;;
51556;SDS011;38766;53.194;5.532;2022-09-01T05:23:10;2.33;;;2.13;;
51556;SDS011;38766;53.194;5.532;2022-09-01T05:25:37;4.80;;;2.00;;
51556;SDS011;38766;53.194;5.532;2022-09-01T05:28:05;2.40;;;2.20;;
51556;SDS011;38766;53.194;5.532;2022-09-01T05:30:33;4.65;;;2.10;;
51556;SDS011;38766;53.194;5.532;2022-09-01T05:33:00;2.42;;;2.22;;
51556;SDS011;38766;53.194;5.532;2022-09-01T05:35:26;4.78;;;2.40;;
51556;SDS011;38766;53.194;5.532;2022-09-01T05:37:53;2.38;;;2.17;;
51556;SDS011;38766;53.194;5.532;2022-09-01T05:40:19;2.80;;;2.28;;
51556;SDS011;38766;53.194;5.532;2022-09-01T05:42:45;3.50;;;2.30;;
51556;SDS011;38766;53.194;5.532;2022-09-01T05:45:12;2.60;;;2.40;;
51556;SDS011;38766;53.194;5.532;2022-09-01T05:47:39;3.10;;;2.10;;
51556;SDS011;38766;53.194;5.532;2022-09-01T05:50:05;3.17;;;2.70;;
51556;SDS011;38766;53.194;5.532;2022-09-01T05:52:35;2.67;;;2.47;;
51556;SDS011;38766;53.194;5.532;2022-09-01T05:55:03;2.30;;;1.95;;
51556;SDS011;38766;53.194;5.532;2022-09-01T05:57:32;5.18;;;2.50;;
51556;SDS011;38766;53.194;5.532;2022-09-01T05:59:59;2.55;;;2.00;;
51556;SDS011;38766;53.194;5.532;2022-09-01T06:02:26;2.95;;;2.40;;
51556;SDS011;38766;53.194;5.532;2022-09-01T06:04:52;3.22;;;2.38;;
51556;SDS011;38766;53.194;5.532;2022-09-01T06:07:20;7.68;;;5.00;;
51556;SDS011;38766;53.194;5.532;2022-09-01T06:09:48;2.95;;;2.42;;
51556;SDS011;38766;53.194;5.532;2022-09-01T06:12:15;3.50;;;2.75;;
51556;SDS011;38766;53.194;5.532;2022-09-01T06:14:50;3.75;;;2.60;;
51556;SDS011;38766;53.194;5.532;2022-09-01T06:17:18;3.22;;;2.47;;
51556;SDS011;38766;53.194;5.532;2022-09-01T06:19:49;3.90;;;2.80;;
51556;SDS011;38766;53.194;5.532;2022-09-01T06:22:17;2.67;;;2.45;;
51556;SDS011;38766;53.194;5.532;2022-09-01T06:24:44;2.55;;;2.35;;
51556;SDS011;38766;53.194;5.532;2022-09-01T06:27:12;2.42;;;2.22;;
51556;SDS011;38766;53.194;5.532;2022-09-01T06:29:39;3.20;;;2.35;;
51556;SDS011;38766;53.194;5.532;2022-09-01T06:32:06;4.03;;;2.38;;
51556;SDS011;38766;53.194;5.532;2022-09-01T06:34:34;5.05;;;2.50;;
51556;SDS011;38766;53.194;5.532;2022-09-01T06:37:02;3.85;;;2.55;;
51556;SDS011;38766;53.194;5.532;2022-09-01T06:39:28;4.45;;;2.63;;
51556;SDS011;38766;53.194;5.532;2022-09-01T06:41:55;2.38;;;2.17;;
51556;SDS011;38766;53.194;5.532;2022-09-01T06:44:22;3.90;;;2.28;;
51556;SDS011;38766;53.194;5.532;2022-09-01T06:46:49;5.38;;;2.53;;
51556;SDS011;38766;53.194;5.532;2022-09-01T06:49:15;4.55;;;2.30;;
51556;SDS011;38766;53.194;5.532;2022-09-01T06:51:41;3.75;;;2.60;;
51556;SDS011;38766;53.194;5.532;2022-09-01T06:54:07;5.05;;;3.08;;
51556;SDS011;38766;53.194;5.532;2022-09-01T06:56:33;8.15;;;2.88;;
51556;SDS011;38766;53.194;5.532;2022-09-01T06:58:59;13.40;;;3.40;;
51556;SDS011;38766;53.194;5.532;2022-09-01T07:01:30;3.90;;;2.50;;
51556;SDS011;38766;53.194;5.532;2022-09-01T07:03:56;8.15;;;2.63;;
51556;SDS011;38766;53.194;5.532;2022-09-01T07:06:22;5.22;;;2.65;;
51556;SDS011;38766;53.194;5.532;2022-09-01T07:08:55;6.40;;;3.08;;
51556;SDS011;38766;53.194;5.532;2022-09-01T07:11:30;10.48;;;4.47;;
51556;SDS011;38766;53.194;5.532;2022-09-01T07:13:58;3.22;;;2.30;;
51556;SDS011;38766;53.194;5.532;2022-09-01T07:16:29;5.82;;;2.92;;
51556;SDS011;38766;53.194;5.532;2022-09-01T07:18:57;3.30;;;2.28;;
51556;SDS011;38766;53.194;5.532;2022-09-01T07:21:25;3.78;;;2.25;;
51556;SDS011;38766;53.194;5.532;2022-09-01T07:23:52;3.40;;;2.20;;
51556;SDS011;38766;53.194;5.532;2022-09-01T07:26:19;3.92;;;2.00;;
51556;SDS011;38766;53.194;5.532;2022-09-01T07:28:46;3.70;;;2.53;;
51556;SDS011;38766;53.194;5.532;2022-09-01T07:31:27;6.43;;;2.65;;
51556;SDS011;38766;53.194;5.532;2022-09-01T07:33:57;3.80;;;2.35;;
51556;SDS011;38766;53.194;5.532;2022-09-01T07:36:25;3.78;;;2.30;;
51556;SDS011;38766;53.194;5.532;2022-09-01T07:38:51;2.65;;;2.22;;
51556;SDS011;38766;53.194;5.532;2022-09-01T07:41:20;3.00;;;2.40;;
51556;SDS011;38766;53.194;5.532;2022-09-01T07:43:48;2.88;;;2.20;;
51556;SDS011;38766;53.194;5.532;2022-09-01T07:46:17;3.30;;;2.33;;
51556;SDS011;38766;53.194;5.532;2022-09-01T07:48:43;2.13;;;1.90;;
51556;SDS011;38766;53.194;5.532;2022-09-01T07:51:11;3.40;;;2.28;;
51556;SDS011;38766;53.194;5.532;2022-09-01T07:53:37;2.20;;;2.10;;
51556;SDS011;38766;53.194;5.532;2022-09-01T07:56:07;2.95;;;2.30;;
51556;SDS011;38766;53.194;5.532;2022-09-01T07:58:35;3.45;;;2.70;;
51556;SDS011;38766;53.194;5.532;2022-09-01T08:01:13;3.67;;;2.50;;
51556;SDS011;38766;53.194;5.532;2022-09-01T08:03:44;4.03;;;2.38;;
51556;SDS011;38766;53.194;5.532;2022-09-01T08:06:11;2.80;;;2.30;;
51556;SDS011;38766;53.194;5.532;2022-09-01T08:08:38;3.40;;;2.20;;
51556;SDS011;38766;53.194;5.532;2022-09-01T08:11:05;2.30;;;2.10;;
51556;SDS011;38766;53.194;5.532;2022-09-01T08:13:35;6.32;;;2.47;;
51556;SDS011;38766;53.194;5.532;2022-09-01T08:16:05;6.53;;;2.67;;
51556;SDS011;38766;53.194;5.532;2022-09-01T08:18:31;7.20;;;2.70;;
51556;SDS011;38766;53.194;5.532;2022-09-01T08:20:57;10.57;;;3.22;;
51556;SDS011;38766;53.194;5.532;2022-09-01T08:23:23;5.95;;;3.08;;
51556;SDS011;38766;53.194;5.532;2022-09-01T08:25:51;10.85;;;3.88;;
51556;SDS011;38766;53.194;5.532;2022-09-01T08:28:17;5.43;;;2.63;;
51556;SDS011;38766;53.194;5.532;2022-09-01T08:30:44;7.95;;;2.33;;
51556;SDS011;38766;53.194;5.532;2022-09-01T08:33:12;4.53;;;2.25;;
51556;SDS011;38766;53.194;5.532;2022-09-01T08:35:42;6.57;;;2.50;;
51556;SDS011;38766;53.194;5.532;2022-09-01T08:38:10;2.83;;;2.10;;
51556;SDS011;38766;53.194;5.532;2022-09-01T08:40:36;2.15;;;1.92;;
51556;SDS011;38766;53.194;5.532;2022-09-01T08:45:45;5.47;;;2.20;;
51556;SDS011;38766;53.194;5.532;2022-09-01T08:51:16;4.65;;;2.20;;
51556;SDS011;38766;53.194;5.532;2022-09-01T08:54:00;3.70;;;2.35;;
51556;SDS011;38766;53.194;5.532;2022-09-01T08:56:42;5.65;;;2.20;;
51556;SDS011;38766;53.194;5.532;2022-09-01T08:59:09;6.95;;;2.33;;
51556;SDS011;38766;53.194;5.532;2022-09-01T09:01:59;4.28;;;2.33;;
51556;SDS011;38766;53.194;5.532;2022-09-01T09:04:41;3.45;;;2.05;;
51556;SDS011;38766;53.194;5.532;2022-09-01T09:09:52;7.13;;;2.53;;
51556;SDS011;38766;53.194;5.532;2022-09-01T09:12:31;10.98;;;3.25;;
51556;SDS011;38766;53.194;5.532;2022-09-01T09:21:01;13.20;;;4.70;;
51556;SDS011;38766;53.194;5.532;2022-09-01T09:23:35;6.03;;;2.92;;
51556;SDS011;38766;53.194;5.532;2022-09-01T09:26:05;5.47;;;2.47;;
51556;SDS011;38766;53.194;5.532;2022-09-01T09:28:30;3.15;;;2.20;;
51556;SDS011;38766;53.194;5.532;2022-09-01T09:33:55;4.63;;;2.10;;
51556;SDS011;38766;53.194;5.532;2022-09-01T09:36:35;2.50;;;1.88;;
51556;SDS011;38766;53.194;5.532;2022-09-01T09:39:19;4.53;;;2.03;;
51556;SDS011;38766;53.194;5.532;2022-09-01T09:44:38;2.78;;;1.70;;
51556;SDS011;38766;53.194;5.532;2022-09-01T09:47:09;3.15;;;1.40;;
51556;SDS011;38766;53.194;5.532;2022-09-01T09:52:48;3.83;;;1.77;;
51556;SDS011;38766;53.194;5.532;2022-09-01T09:55:26;4.85;;;1.75;;
51556;SDS011;38766;53.194;5.532;2022-09-01T09:57:55;2.45;;;0.98;;
51556;SDS011;38766;53.194;5.532;2022-09-01T10:00:30;3.10;;;1.30;;
51556;SDS011;38766;53.194;5.532;2022-09-01T10:03:02;2.60;;;1.20;;
51556;SDS011;38766;53.194;5.532;2022-09-01T10:05:45;1.17;;;1.05;;
51556;SDS011;38766;53.194;5.532;2022-09-01T10:10:54;3.58;;;1.70;;
51556;SDS011;38766;53.194;5.532;2022-09-01T10:13:21;4.05;;;2.00;;
51556;SDS011;38766;53.194;5.532;2022-09-01T10:15:59;5.97;;;1.90;;
51556;SDS011;38766;53.194;5.532;2022-09-01T10:18:31;8.10;;;2.83;;
51556;SDS011;38766;53.194;5.532;2022-09-01T10:24:12;4.20;;;1.52;;
51556;SDS011;38766;53.194;5.532;2022-09-01T10:26:44;2.60;;;1.20;;
51556;SDS011;38766;53.194;5.532;2022-09-01T10:29:20;2.80;;;1.20;;
51556;SDS011;38766;53.194;5.532;2022-09-01T10:31:54;3.03;;;1.55;;
51556;SDS011;38766;53.194;5.532;2022-09-01T10:34:20;3.35;;;1.50;;
51556;SDS011;38766;53.194;5.532;2022-09-01T10:36:48;3.83;;;1.20;;
51556;SDS011;38766;53.194;5.532;2022-09-01T10:39:16;2.40;;;1.30;;
51556;SDS011;38766;53.194;5.532;2022-09-01T10:41:47;2.85;;;1.40;;
51556;SDS011;38766;53.194;5.532;2022-09-01T10:46:46;2.75;;;1.45;;
51556;SDS011;38766;53.194;5.532;2022-09-01T10:51:51;1.65;;;1.17;;
51556;SDS011;38766;53.194;5.532;2022-09-01T10:57:08;1.17;;;0.95;;
51556;SDS011;38766;53.194;5.532;2022-09-01T10:59:45;1.20;;;1.10;;
51556;SDS011;38766;53.194;5.532;2022-09-01T11:02:15;2.88;;;1.30;;
51556;SDS011;38766;53.194;5.532;2022-09-01T11:09:44;2.20;;;1.48;;
51556;SDS011;38766;53.194;5.532;2022-09-01T11:15:33;2.05;;;1.40;;
51556;SDS011;38766;53.194;5.532;2022-09-01T11:18:02;2.85;;;1.50;;
51556;SDS011;38766;53.194;5.532;2022-09-01T11:20:38;3.40;;;1.30;;
51556;SDS011;38766;53.194;5.532;2022-09-01T11:23:22;1.60;;;1.30;;
51556;SDS011;38766;53.194;5.532;2022-09-01T11:25:55;1.33;;;1.17;;
51556;SDS011;38766;53.194;5.532;2022-09-01T11:41:51;1.08;;;0.98;;
51556;SDS011;38766;53.194;5.532;2022-09-01T11:47:03;1.42;;;0.98;;
51556;SDS011;38766;53.194;5.532;2022-09-01T11:49:35;0.90;;;0.90;;
51556;SDS011;38766;53.194;5.532;2022-09-01T11:52:04;1.63;;;1.20;;
51556;SDS011;38766;53.194;5.532;2022-09-01T11:54:38;1.35;;;1.25;;
51556;SDS011;38766;53.194;5.532;2022-09-01T11:58:06;2.95;;;1.00;;
51556;SDS011;38766;53.194;5.532;2022-09-01T12:00:09;1.45;;;1.10;;
51556;SDS011;38766;53.194;5.532;2022-09-01T12:02:47;1.80;;;1.13;;
51556;SDS011;38766;53.194;5.532;2022-09-01T12:05:23;0.90;;;0.82;;
51556;SDS011;38766;53.194;5.532;2022-09-01T12:07:50;1.88;;;1.20;;
51556;SDS011;38766;53.194;5.532;2022-09-01T12:12:51;2.25;;;1.20;;
51556;SDS011;38766;53.194;5.532;2022-09-01T12:15:28;2.35;;;1.10;;
51556;SDS011;38766;53.194;5.532;2022-09-01T12:18:07;1.40;;;1.20;;
51556;SDS011;38766;53.194;5.532;2022-09-01T12:23:16;1.63;;;1.15;;
51556;SDS011;38766;53.194;5.532;2022-09-01T12:25:49;1.52;;;1.40;;
51556;SDS011;38766;53.194;5.532;2022-09-01T12:28:15;2.63;;;1.02;;
51556;SDS011;38766;53.194;5.532;2022-09-01T12:30:41;2.00;;;1.20;;
51556;SDS011;38766;53.194;5.532;2022-09-01T12:33:09;1.65;;;1.20;;
51556;SDS011;38766;53.194;5.532;2022-09-01T12:35:37;1.02;;;0.88;;
51556;SDS011;38766;53.194;5.532;2022-09-01T12:40:48;2.22;;;1.10;;
51556;SDS011;38766;53.194;5.532;2022-09-01T12:46:38;1.42;;;1.10;;
51556;SDS011;38766;53.194;5.532;2022-09-01T12:49:17;3.22;;;1.13;;
51556;SDS011;38766;53.194;5.532;2022-09-01T12:51:49;1.00;;;0.90;;
51556;SDS011;38766;53.194;5.532;2022-09-01T12:54:29;1.70;;;1.10;;
51556;SDS011;38766;53.194;5.532;2022-09-01T12:56:55;3.95;;;1.27;;
51556;SDS011;38766;53.194;5.532;2022-09-01T12:59:23;1.25;;;1.15;;
51556;SDS011;38766;53.194;5.532;2022-09-01T13:01:50;2.03;;;1.13;;
51556;SDS011;38766;53.194;5.532;2022-09-01T13:06:45;1.33;;;1.20;;
51556;SDS011;38766;53.194;5.532;2022-09-01T13:09:11;1.20;;;1.10;;
51556;SDS011;38766;53.194;5.532;2022-09-01T13:11:36;1.17;;;0.70;;
51556;SDS011;38766;53.194;5.532;2022-09-01T13:14:02;0.98;;;0.98;;
51556;SDS011;38766;53.194;5.532;2022-09-01T13:16:28;7.47;;;1.20;;
51556;SDS011;38766;53.194;5.532;2022-09-01T13:18:54;3.78;;;1.10;;
51556;SDS011;38766;53.194;5.532;2022-09-01T13:21:19;1.58;;;1.00;;
51556;SDS011;38766;53.194;5.532;2022-09-01T13:23:45;1.23;;;1.00;;
51556;SDS011;38766;53.194;5.532;2022-09-01T13:26:11;4.60;;;1.17;;
51556;SDS011;38766;53.194;5.532;2022-09-01T13:28:37;2.95;;;1.08;;
51556;SDS011;38766;53.194;5.532;2022-09-01T13:31:03;1.67;;;1.00;;
51556;SDS011;38766;53.194;5.532;2022-09-01T13:33:29;1.95;;;1.13;;
51556;SDS011;38766;53.194;5.532;2022-09-01T13:35:56;1.10;;;0.70;;
51556;SDS011;38766;53.194;5.532;2022-09-01T13:38:22;1.30;;;1.00;;
51556;SDS011;38766;53.194;5.532;2022-09-01T13:40:48;2.22;;;0.90;;
51556;SDS011;38766;53.194;5.532;2022-09-01T13:43:15;2.55;;;1.30;;
51556;SDS011;38766;53.194;5.532;2022-09-01T13:45:46;2.00;;;1.23;;
51556;SDS011;38766;53.194;5.532;2022-09-01T13:48:13;1.95;;;1.10;;
51556;SDS011;38766;53.194;5.532;2022-09-01T13:50:39;1.17;;;1.10;;
51556;SDS011;38766;53.194;5.532;2022-09-01T13:53:06;3.22;;;0.93;;
51556;SDS011;38766;53.194;5.532;2022-09-01T13:55:33;1.48;;;1.10;;
51556;SDS011;38766;53.194;5.532;2022-09-01T13:58:02;2.33;;;1.17;;
51556;SDS011;38766;53.194;5.532;2022-09-01T14:00:32;2.53;;;1.02;;
51556;SDS011;38766;53.194;5.532;2022-09-01T14:03:08;2.78;;;1.10;;
51556;SDS011;38766;53.194;5.532;2022-09-01T14:05:38;2.53;;;0.90;;
51556;SDS011;38766;53.194;5.532;2022-09-01T14:08:06;3.67;;;1.00;;
51556;SDS011;38766;53.194;5.532;2022-09-01T14:10:36;2.10;;;1.35;;
51556;SDS011;38766;53.194;5.532;2022-09-01T14:13:03;2.10;;;0.98;;
51556;SDS011;38766;53.194;5.532;2022-09-01T14:15:29;1.63;;;1.02;;
51556;SDS011;38766;53.194;5.532;2022-09-01T14:17:55;3.22;;;0.98;;
51556;SDS011;38766;53.194;5.532;2022-09-01T14:20:23;2.75;;;1.10;;
51556;SDS011;38766;53.194;5.532;2022-09-01T14:22:51;1.60;;;1.10;;
51556;SDS011;38766;53.194;5.532;2022-09-01T14:25:18;2.78;;;1.25;;
51556;SDS011;38766;53.194;5.532;2022-09-01T14:27:45;2.70;;;1.25;;
51556;SDS011;38766;53.194;5.532;2022-09-01T14:30:15;2.72;;;1.20;;
51556;SDS011;38766;53.194;5.532;2022-09-01T14:32:44;1.95;;;1.10;;
51556;SDS011;38766;53.194;5.532;2022-09-01T14:35:10;1.27;;;1.00;;
51556;SDS011;38766;53.194;5.532;2022-09-01T14:37:36;3.55;;;1.10;;
51556;SDS011;38766;53.194;5.532;2022-09-01T14:40:02;2.00;;;1.20;;
51556;SDS011;38766;53.194;5.532;2022-09-01T14:42:29;0.98;;;0.90;;
51556;SDS011;38766;53.194;5.532;2022-09-01T14:44:55;1.38;;;0.98;;
51556;SDS011;38766;53.194;5.532;2022-09-01T14:47:21;1.95;;;1.10;;
51556;SDS011;38766;53.194;5.532;2022-09-01T14:49:48;3.88;;;1.00;;
51556;SDS011;38766;53.194;5.532;2022-09-01T14:52:14;1.30;;;1.10;;
51556;SDS011;38766;53.194;5.532;2022-09-01T14:54:42;1.60;;;1.02;;
51556;SDS011;38766;53.194;5.532;2022-09-01T14:57:09;0.95;;;0.90;;
51556;SDS011;38766;53.194;5.532;2022-09-01T14:59:35;3.17;;;1.08;;
51556;SDS011;38766;53.194;5.532;2022-09-01T15:02:01;5.65;;;1.05;;
51556;SDS011;38766;53.194;5.532;2022-09-01T15:04:28;3.17;;;1.23;;
51556;SDS011;38766;53.194;5.532;2022-09-01T15:06:54;4.03;;;1.10;;
51556;SDS011;38766;53.194;5.532;2022-09-01T15:09:20;2.97;;;0.70;;
51556;SDS011;38766;53.194;5.532;2022-09-01T15:11:46;2.60;;;0.82;;
51556;SDS011;38766;53.194;5.532;2022-09-01T15:14:11;1.20;;;0.88;;
51556;SDS011;38766;53.194;5.532;2022-09-01T15:16:37;1.60;;;1.00;;
51556;SDS011;38766;53.194;5.532;2022-09-01T15:19:05;2.08;;;1.00;;
51556;SDS011;38766;53.194;5.532;2022-09-01T15:21:33;2.97;;;0.98;;
51556;SDS011;38766;53.194;5.532;2022-09-01T15:24:00;2.35;;;1.20;;
51556;SDS011;38766;53.194;5.532;2022-09-01T15:26:26;1.27;;;0.75;;
51556;SDS011;38766;53.194;5.532;2022-09-01T15:28:53;2.22;;;1.10;;
51556;SDS011;38766;53.194;5.532;2022-09-01T15:31:19;2.20;;;0.90;;
51556;SDS011;38766;53.194;5.532;2022-09-01T15:33:46;4.28;;;1.25;;
51556;SDS011;38766;53.194;5.532;2022-09-01T15:36:16;2.88;;;0.93;;
51556;SDS011;38766;53.194;5.532;2022-09-01T15:38:43;1.85;;;1.00;;
51556;SDS011;38766;53.194;5.532;2022-09-01T15:41:20;2.35;;;0.93;;
51556;SDS011;38766;53.194;5.532;2022-09-01T15:43:47;1.83;;;1.00;;
51556;SDS011;38766;53.194;5.532;2022-09-01T15:46:13;2.33;;;0.88;;
51556;SDS011;38766;53.194;5.532;2022-09-01T15:48:39;1.75;;;1.10;;
51556;SDS011;38766;53.194;5.532;2022-09-01T15:53:55;2.78;;;1.40;;
51556;SDS011;38766;53.194;5.532;2022-09-01T15:56:24;3.03;;;2.10;;
51556;SDS011;38766;53.194;5.532;2022-09-01T15:58:50;2.72;;;1.13;;
51556;SDS011;38766;53.194;5.532;2022-09-01T16:01:16;3.17;;;1.10;;
51556;SDS011;38766;53.194;5.532;2022-09-01T16:03:42;0.75;;;0.70;;
51556;SDS011;38766;53.194;5.532;2022-09-01T16:06:09;0.80;;;0.80;;
51556;SDS011;38766;53.194;5.532;2022-09-01T16:08:35;3.10;;;0.80;;
51556;SDS011;38766;53.194;5.532;2022-09-01T16:11:04;2.33;;;0.95;;
51556;SDS011;38766;53.194;5.532;2022-09-01T16:13:40;2.78;;;0.90;;
51556;SDS011;38766;53.194;5.532;2022-09-01T16:22:37;2.80;;;1.20;;
51556;SDS011;38766;53.194;5.532;2022-09-01T16:24:57;1.30;;;0.80;;
51556;SDS011;38766;53.194;5.532;2022-09-01T16:27:36;2.50;;;1.00;;
51556;SDS011;38766;53.194;5.532;2022-09-01T16:30:05;1.65;;;1.17;;